Terminal Aerodrome Forecast
Issued by NWS Billings, MT

Home | Current Version | Previous Version | Graphics & Text | Print | Product List | Glossary On
Versions: 1 2 3 4 5 6 7 8 9 10 11 12
000
FTUS45 KBYZ 281123
TAFMLS
TAF
KMLS 281123Z 2812/2912 04008KT P6SM VCSH BKN080
     FM281300 33010KT 6SM -SHRA SCT030 BKN070
     FM282300 32013KT P6SM BKN035 BKN100=

USA.gov is the U.S. government's official web portal to all federal, state and local government web resources and services.